createdAt,value
2022-08-23T00:02:27.439Z,2.42
2022-08-23T00:05:08.441Z,3.72
2022-08-23T00:07:41.057Z,3.28
2022-08-23T00:10:15.997Z,3.30
2022-08-23T00:12:45.941Z,2.72
2022-08-23T00:15:17.111Z,2.97
2022-08-23T00:17:44.851Z,2.30
2022-08-23T00:20:17.004Z,3.15
2022-08-23T00:22:44.429Z,4.50
2022-08-23T00:25:14.288Z,2.88
2022-08-23T00:27:41.754Z,3.22
2022-08-23T00:30:13.124Z,2.63
2022-08-23T00:32:42.419Z,2.83
2022-08-23T00:35:12.386Z,3.15
2022-08-23T00:38:31.575Z,2.92
2022-08-23T00:40:36.225Z,3.78
2022-08-23T00:43:31.755Z,3.17
2022-08-23T00:46:46.719Z,3.13
2022-08-23T00:49:16.735Z,2.72
2022-08-23T00:52:03.628Z,3.08
2022-08-23T00:54:33.266Z,2.67
2022-08-23T00:57:05.699Z,2.67
2022-08-23T00:59:33.775Z,3.78
2022-08-23T01:02:01.884Z,3.40
2022-08-23T01:04:39.919Z,3.55
2022-08-23T01:07:35.107Z,2.83
2022-08-23T01:10:20.013Z,2.40
2022-08-23T01:12:58.468Z,2.85
2022-08-23T01:15:42.015Z,3.05
2022-08-23T01:18:15.000Z,3.03
2022-08-23T01:21:16.704Z,3.53
2022-08-23T01:23:49.507Z,2.73
2022-08-23T01:26:21.860Z,2.75
2022-08-23T01:28:52.241Z,2.80
2022-08-23T01:31:22.438Z,2.90
2022-08-23T01:34:05.009Z,2.90
2022-08-23T01:39:01.070Z,2.97
2022-08-23T01:41:28.635Z,2.60
2022-08-23T01:43:55.840Z,2.47
2022-08-23T01:46:26.973Z,2.88
2022-08-23T01:48:55.685Z,3.00
2022-08-23T01:51:25.504Z,2.95
2022-08-23T01:53:53.196Z,2.75
2022-08-23T01:56:38.701Z,3.03
2022-08-23T01:59:13.345Z,2.42
2022-08-23T02:01:45.222Z,3.28
2022-08-23T02:04:12.726Z,3.15
2022-08-23T02:06:39.947Z,3.17
2022-08-23T02:09:17.306Z,3.33
2022-08-23T02:11:47.173Z,3.80
2022-08-23T02:14:20.686Z,3.10
2022-08-23T02:17:04.311Z,2.45
2022-08-23T02:19:38.354Z,3.42
2022-08-23T02:22:08.782Z,2.83
2022-08-23T02:24:45.058Z,3.45
2022-08-23T02:27:17.114Z,2.90
2022-08-23T02:29:47.452Z,2.30
2022-08-23T02:32:18.163Z,3.75
2022-08-23T02:34:51.048Z,2.88
2022-08-23T02:37:31.986Z,3.00
2022-08-23T02:39:59.154Z,2.53
2022-08-23T02:42:26.520Z,3.05
2022-08-23T02:44:54.554Z,3.92
2022-08-23T02:47:22.190Z,3.60
2022-08-23T02:50:10.168Z,3.00
2022-08-23T02:52:37.557Z,3.05
2022-08-23T02:55:07.666Z,3.55
2022-08-23T02:57:35.441Z,2.60
2022-08-23T03:00:11.448Z,2.67
2022-08-23T03:02:40.581Z,3.15
2022-08-23T03:05:09.951Z,3.25
2022-08-23T03:07:37.971Z,3.58
2022-08-23T03:10:07.451Z,3.05
2022-08-23T03:12:37.931Z,3.50
2022-08-23T03:15:06.834Z,3.58
2022-08-23T03:17:35.367Z,2.72
2022-08-23T03:20:06.082Z,3.38
2022-08-23T03:22:34.342Z,2.97
2022-08-23T03:25:02.060Z,3.03
2022-08-23T03:27:45.097Z,4.38
2022-08-23T03:30:17.775Z,3.08
2022-08-23T03:32:51.935Z,4.13
2022-08-23T03:35:19.843Z,3.90
2022-08-23T03:37:47.097Z,2.90
2022-08-23T03:40:16.282Z,3.85
2022-08-23T03:42:43.790Z,3.03
2022-08-23T03:45:11.843Z,2.72
2022-08-23T03:47:39.290Z,3.72
2022-08-23T03:50:07.755Z,3.03
2022-08-23T03:52:36.609Z,3.88
2022-08-23T03:55:04.469Z,2.70
2022-08-23T03:57:34.613Z,3.55
2022-08-23T04:00:06.381Z,3.90
2022-08-23T04:02:41.552Z,3.45
2022-08-23T04:05:12.359Z,2.90
2022-08-23T04:08:06.130Z,3.40
2022-08-23T04:10:33.450Z,3.58
2022-08-23T04:13:01.551Z,3.40
2022-08-23T04:15:29.306Z,3.40
2022-08-23T04:17:59.563Z,3.45
2022-08-23T04:20:27.794Z,3.33
2022-08-23T04:22:58.875Z,4.75
2022-08-23T04:25:33.627Z,3.35
2022-08-23T04:28:03.620Z,3.80
2022-08-23T04:30:33.368Z,4.25
2022-08-23T04:33:01.842Z,4.07
2022-08-23T04:35:30.971Z,3.58
2022-08-23T04:37:58.339Z,3.15
2022-08-23T04:40:45.279Z,3.28
2022-08-23T04:43:14.023Z,3.28
2022-08-23T04:45:42.137Z,3.97
2022-08-23T04:48:17.439Z,3.60
2022-08-23T04:50:49.616Z,5.03
2022-08-23T04:53:19.375Z,3.65
2022-08-23T04:55:56.929Z,3.88
2022-08-23T04:58:24.442Z,4.63
2022-08-23T05:00:53.239Z,3.90
2022-08-23T05:03:29.804Z,3.70
2022-08-23T05:05:58.810Z,3.95
2022-08-23T05:08:35.472Z,4.72
2022-08-23T05:11:07.786Z,4.82
2022-08-23T05:13:38.869Z,3.90
2022-08-23T05:16:08.770Z,4.10
2022-08-23T05:18:41.409Z,4.53
2022-08-23T05:21:18.915Z,5.03
2022-08-23T05:23:50.759Z,5.05
2022-08-23T05:26:22.343Z,3.20
2022-08-23T05:28:50.665Z,3.97
2022-08-23T05:31:27.497Z,4.65
2022-08-23T05:33:59.458Z,4.57
2022-08-23T05:36:47.622Z,4.18
2022-08-23T05:39:26.402Z,4.78
2022-08-23T05:42:03.285Z,6.43
2022-08-23T05:44:34.516Z,5.32
2022-08-23T05:47:10.705Z,5.68
2022-08-23T06:02:37.326Z,7.00
2022-08-23T06:05:06.870Z,6.80
2022-08-23T06:07:36.424Z,7.35
2022-08-23T06:10:05.665Z,8.25
2022-08-23T06:12:34.789Z,10.23
2022-08-23T06:15:03.108Z,10.80
2022-08-23T06:17:32.018Z,9.32
2022-08-23T06:19:59.973Z,9.23
2022-08-23T06:22:57.250Z,9.48
2022-08-23T06:25:24.603Z,10.10
2022-08-23T06:27:55.918Z,11.03
2022-08-23T06:30:24.113Z,11.38
2022-08-23T06:32:57.195Z,10.52
2022-08-23T06:35:43.173Z,9.30
2022-08-23T06:38:41.759Z,10.95
2022-08-23T06:41:22.917Z,11.50
2022-08-23T06:44:09.519Z,9.13
2022-08-23T06:46:57.544Z,11.55
2022-08-23T06:49:27.601Z,10.68
2022-08-23T06:51:57.943Z,11.25
2022-08-23T06:54:47.668Z,9.88
2022-08-23T06:57:32.791Z,11.13
2022-08-23T07:00:22.420Z,13.20
2022-08-23T07:03:11.912Z,11.35
2022-08-23T07:06:12.035Z,8.82
2022-08-23T07:08:40.358Z,9.95
2022-08-23T07:11:07.797Z,11.00
2022-08-23T07:13:40.698Z,9.55
2022-08-23T07:16:08.149Z,14.20
2022-08-23T07:18:35.861Z,11.05
2022-08-23T07:21:05.917Z,9.88
2022-08-23T07:23:35.013Z,11.52
2022-08-23T07:26:11.438Z,10.63
2022-08-23T07:28:41.622Z,9.57
2022-08-23T07:31:24.262Z,10.32
2022-08-23T07:33:51.788Z,8.50
2022-08-23T07:36:24.168Z,7.93
2022-08-23T07:38:53.671Z,7.80
2022-08-23T07:41:25.570Z,8.85
2022-08-23T07:43:55.136Z,10.15
2022-08-23T07:46:22.346Z,9.15
2022-08-23T07:48:58.603Z,9.25
2022-08-23T07:51:34.604Z,7.95
2022-08-23T07:54:07.942Z,8.10
2022-08-23T07:56:44.439Z,8.65
2022-08-23T07:59:47.783Z,7.50
2022-08-23T08:02:53.740Z,8.60
2022-08-23T08:05:27.662Z,7.55
2022-08-23T08:07:56.901Z,8.13
2022-08-23T08:10:24.325Z,7.75
2022-08-23T08:12:51.926Z,7.75
2022-08-23T08:15:20.644Z,9.40
2022-08-23T08:17:55.068Z,8.23
2022-08-23T08:20:23.344Z,7.95
2022-08-23T08:23:11.463Z,8.40
2022-08-23T08:26:07.326Z,7.20
2022-08-23T08:28:37.660Z,6.60
2022-08-23T08:31:07.234Z,6.82
2022-08-23T08:33:34.503Z,6.90
2022-08-23T08:36:04.910Z,7.32
2022-08-23T08:38:47.902Z,7.30
2022-08-23T08:41:32.803Z,6.65
2022-08-23T08:44:16.826Z,7.63
2022-08-23T08:46:57.228Z,7.82
2022-08-23T08:50:03.838Z,7.93
2022-08-23T08:52:39.411Z,7.88
2022-08-23T08:55:38.131Z,6.97
2022-08-23T08:58:07.265Z,6.20
2022-08-23T09:00:38.826Z,6.32
2022-08-23T09:03:16.915Z,8.13
2022-08-23T09:06:16.294Z,6.55
2022-08-23T09:09:44.542Z,7.35
2022-08-23T09:12:53.353Z,7.53
2022-08-23T09:15:46.530Z,6.25
2022-08-23T09:18:17.239Z,7.20
2022-08-23T09:20:52.110Z,6.75
2022-08-23T09:23:32.324Z,6.68
2022-08-23T09:26:05.499Z,6.35
2022-08-23T09:28:38.159Z,7.53
2022-08-23T09:31:08.746Z,7.22
2022-08-23T09:33:46.047Z,6.75
2022-08-23T09:36:39.895Z,7.45
2022-08-23T09:39:35.508Z,6.82
2022-08-23T09:42:35.921Z,7.15
2022-08-23T09:45:35.189Z,8.57
2022-08-23T09:48:11.886Z,7.78
2022-08-23T09:50:57.923Z,6.72
2022-08-23T09:53:28.204Z,6.75
2022-08-23T09:56:11.361Z,6.93
2022-08-23T09:58:54.122Z,8.18
2022-08-23T10:01:39.513Z,6.95
2022-08-23T10:04:41.450Z,8.18
2022-08-23T10:07:43.936Z,7.78
2022-08-23T10:10:23.920Z,6.95
2022-08-23T10:12:56.482Z,7.10
2022-08-23T10:16:07.764Z,7.35
2022-08-23T10:19:15.370Z,7.20
2022-08-23T10:22:04.978Z,7.30
2022-08-23T10:24:45.365Z,6.93
2022-08-23T10:27:50.727Z,7.00
2022-08-23T10:30:34.271Z,5.80
2022-08-23T10:33:26.676Z,6.53
2022-08-23T10:36:28.121Z,6.88
2022-08-23T10:39:30.357Z,7.38
2022-08-23T10:42:41.662Z,7.07
2022-08-23T10:45:36.334Z,6.55
2022-08-23T10:48:38.412Z,7.55
2022-08-23T10:51:22.631Z,7.07
2022-08-23T10:54:06.246Z,7.45
2022-08-23T10:56:42.935Z,7.03
2022-08-23T10:59:24.895Z,7.00
2022-08-23T11:02:29.605Z,6.43
2022-08-23T11:05:32.248Z,6.88
2022-08-23T11:08:29.934Z,7.32
2022-08-23T11:10:58.178Z,7.40
2022-08-23T11:13:35.235Z,7.13
2022-08-23T11:16:15.914Z,7.13
2022-08-23T11:18:51.309Z,7.10
2022-08-23T11:21:33.386Z,7.57
2022-08-23T11:24:05.505Z,7.47
2022-08-23T11:26:37.736Z,6.68
2022-08-23T11:29:08.252Z,6.47
2022-08-23T11:32:24.990Z,6.35
2022-08-23T11:35:30.362Z,7.72
2022-08-23T11:38:05.266Z,6.18
2022-08-23T11:41:18.722Z,5.72
2022-08-23T11:43:57.167Z,7.10
2022-08-23T11:46:32.468Z,7.03
2022-08-23T11:49:31.907Z,6.30
2022-08-23T11:52:49.774Z,5.60
2022-08-23T11:56:05.604Z,6.47
2022-08-23T11:59:41.546Z,6.65
2022-08-23T12:02:34.664Z,6.20
2022-08-23T12:05:46.694Z,6.13
2022-08-23T12:08:27.607Z,7.53
2022-08-23T12:10:54.986Z,6.50
2022-08-23T12:13:22.749Z,7.38
2022-08-23T12:16:17.511Z,5.70
2022-08-23T12:18:52.809Z,7.10
2022-08-23T12:21:45.751Z,6.97
2022-08-23T12:24:25.914Z,6.32
2022-08-23T12:27:36.675Z,7.55
2022-08-23T12:30:20.314Z,6.28
2022-08-23T12:33:26.173Z,9.48
2022-08-23T12:36:35.765Z,6.93
2022-08-23T12:39:23.890Z,5.70
2022-08-23T12:42:04.351Z,5.93
2022-08-23T12:44:34.453Z,5.65
2022-08-23T12:47:20.472Z,6.55
2022-08-23T12:50:09.185Z,6.93
2022-08-23T12:52:38.287Z,6.43
2022-08-23T12:55:18.906Z,5.53
2022-08-23T12:57:56.110Z,4.82
2022-08-23T13:00:43.429Z,4.57
2022-08-23T13:03:27.742Z,5.07
2022-08-23T13:06:12.938Z,6.20
2022-08-23T13:08:57.991Z,4.82
2022-08-23T13:11:31.389Z,5.50
2022-08-23T13:13:59.396Z,5.70
2022-08-23T13:16:36.594Z,6.55
2022-08-23T13:19:31.706Z,5.28
2022-08-23T13:22:22.613Z,5.28
2022-08-23T13:25:31.664Z,4.68
2022-08-23T13:28:27.166Z,5.00
2022-08-23T13:31:08.675Z,4.53
2022-08-23T13:33:37.251Z,4.88
2022-08-23T13:36:16.482Z,5.35
2022-08-23T13:38:45.167Z,5.03
2022-08-23T13:41:38.827Z,4.47
2022-08-23T13:44:09.977Z,5.20
2022-08-23T13:46:47.742Z,5.80
2022-08-23T13:49:27.458Z,5.53
2022-08-23T13:52:32.957Z,4.63
2022-08-23T13:54:52.598Z,4.65
2022-08-23T13:57:22.170Z,4.88
2022-08-23T13:59:56.095Z,4.32
2022-08-23T14:02:24.949Z,5.45
2022-08-23T14:04:52.469Z,4.90
2022-08-23T14:07:19.952Z,5.57
2022-08-23T14:09:50.090Z,5.00
2022-08-23T14:12:24.832Z,4.80
2022-08-23T14:14:57.633Z,4.32
2022-08-23T14:17:26.099Z,6.43
2022-08-23T14:22:41.552Z,5.40
2022-08-23T14:25:10.787Z,5.40
2022-08-23T14:27:41.854Z,5.57
2022-08-23T14:30:22.782Z,5.88
2022-08-23T14:32:50.271Z,5.05
2022-08-23T14:35:17.879Z,5.55
2022-08-23T14:40:36.482Z,5.18
2022-08-23T14:43:05.725Z,6.03
2022-08-23T14:45:32.883Z,5.60
2022-08-23T14:48:00.694Z,6.15
2022-08-23T14:50:28.701Z,5.82
2022-08-23T14:52:57.547Z,7.57
2022-08-23T14:55:25.382Z,7.13
2022-08-23T14:57:52.602Z,7.25
2022-08-23T15:00:19.955Z,7.68
2022-08-23T15:02:50.042Z,7.85
2022-08-23T15:05:18.309Z,7.70
2022-08-23T15:07:45.918Z,7.20
2022-08-23T15:13:19.532Z,7.25
2022-08-23T15:15:51.332Z,8.02
2022-08-23T15:18:19.276Z,7.38
2022-08-23T15:20:47.504Z,8.30
2022-08-23T15:23:15.436Z,6.85
2022-08-23T15:25:44.827Z,6.68
2022-08-23T15:28:16.754Z,6.28
2022-08-23T15:30:46.045Z,7.20
2022-08-23T15:33:13.604Z,7.43
2022-08-23T15:35:48.944Z,6.97
2022-08-23T15:38:22.979Z,6.35
2022-08-23T15:40:53.619Z,6.72
2022-08-23T15:43:25.862Z,6.47
2022-08-23T15:46:12.395Z,6.20
2022-08-23T15:48:50.293Z,6.60
2022-08-23T15:51:19.163Z,8.07
2022-08-23T15:53:47.890Z,7.53
2022-08-23T15:56:28.878Z,7.78
2022-08-23T15:58:56.621Z,6.43
2022-08-23T16:01:25.609Z,7.20
2022-08-23T16:03:53.507Z,8.77
2022-08-23T16:06:21.909Z,6.30
2022-08-23T16:08:52.496Z,6.50
2022-08-23T16:11:21.150Z,6.75
2022-08-23T16:13:50.088Z,6.22
2022-08-23T16:16:27.285Z,7.55
2022-08-23T16:18:56.934Z,8.60
2022-08-23T16:21:27.350Z,7.15
2022-08-23T16:23:56.594Z,8.73
2022-08-23T16:26:35.112Z,7.25
2022-08-23T16:29:08.682Z,7.68
2022-08-23T16:31:39.230Z,7.82
2022-08-23T16:34:13.813Z,7.57
2022-08-23T16:36:45.013Z,7.95
2022-08-23T16:39:14.614Z,7.40
2022-08-23T16:41:42.168Z,8.32
2022-08-23T16:44:09.885Z,7.65
2022-08-23T16:46:41.219Z,8.70
2022-08-23T16:49:10.806Z,8.57
2022-08-23T16:51:38.306Z,7.82
2022-08-23T16:54:05.910Z,8.40
2022-08-23T16:56:34.036Z,7.53
2022-08-23T16:59:04.550Z,7.45
2022-08-23T17:01:49.380Z,9.40
2022-08-23T17:04:18.476Z,9.05
2022-08-23T17:06:46.260Z,8.45
2022-08-23T17:09:15.482Z,8.50
2022-08-23T17:11:44.315Z,7.35
2022-08-23T17:14:12.661Z,9.10
2022-08-23T17:16:41.883Z,8.30
2022-08-23T17:19:10.966Z,8.00
2022-08-23T17:21:38.773Z,8.30
2022-08-23T17:24:06.331Z,7.70
2022-08-23T17:26:34.050Z,9.27
2022-08-23T17:29:04.594Z,9.05
2022-08-23T17:31:31.864Z,9.07
2022-08-23T17:34:11.372Z,8.43
2022-08-23T17:36:51.091Z,8.23
2022-08-23T17:39:22.857Z,8.38
2022-08-23T17:41:51.078Z,8.68
2022-08-23T17:44:18.335Z,8.25
2022-08-23T17:46:47.128Z,9.38
2022-08-23T17:49:16.526Z,10.77
2022-08-23T17:51:44.557Z,8.70
2022-08-23T17:54:16.080Z,9.75
2022-08-23T17:56:50.193Z,8.65
2022-08-23T17:59:20.366Z,10.23
2022-08-23T18:01:47.866Z,9.65
2022-08-23T18:04:14.908Z,10.60
2022-08-23T18:06:42.477Z,9.90
2022-08-23T18:09:10.810Z,10.43
2022-08-23T18:11:37.965Z,9.68
2022-08-23T18:14:05.995Z,11.40
2022-08-23T18:16:35.718Z,8.90
2022-08-23T18:19:07.112Z,10.10
2022-08-23T18:21:41.482Z,10.18
2022-08-23T18:24:09.551Z,10.90
2022-08-23T18:26:56.693Z,9.50
2022-08-23T18:29:24.437Z,10.10
2022-08-23T18:31:51.937Z,11.48
2022-08-23T18:34:19.967Z,9.63
2022-08-23T18:36:47.740Z,9.27
2022-08-23T18:39:15.996Z,10.38
2022-08-23T18:41:43.779Z,10.10
2022-08-23T18:44:11.730Z,10.10
2022-08-23T18:46:42.123Z,11.55
2022-08-23T18:49:12.117Z,9.35
2022-08-23T18:51:41.531Z,10.18
2022-08-23T18:54:09.690Z,10.55
2022-08-23T18:56:37.277Z,10.88
2022-08-23T18:59:06.146Z,10.10
2022-08-23T19:01:40.591Z,9.00
2022-08-23T19:04:10.186Z,10.45
2022-08-23T19:06:38.632Z,10.32
2022-08-23T19:09:08.106Z,9.45
2022-08-23T19:11:39.693Z,10.40
2022-08-23T19:14:09.958Z,9.40
2022-08-23T19:16:38.061Z,9.48
2022-08-23T19:19:06.842Z,9.18
2022-08-23T19:21:34.139Z,8.52
2022-08-23T19:24:02.414Z,10.27
2022-08-23T19:26:34.315Z,10.27
2022-08-23T19:29:07.789Z,10.80
2022-08-23T19:31:41.735Z,12.05
2022-08-23T19:34:11.345Z,11.00
2022-08-23T19:36:48.343Z,10.70
2022-08-23T19:39:19.866Z,12.77
2022-08-23T19:41:48.556Z,12.77
2022-08-23T19:44:17.722Z,12.80
2022-08-23T19:46:45.717Z,14.60
2022-08-23T19:49:14.586Z,13.30
2022-08-23T19:51:43.787Z,13.02
2022-08-23T19:54:13.600Z,13.45
2022-08-23T19:56:49.821Z,13.30
2022-08-23T19:59:23.306Z,14.00
2022-08-23T20:01:53.523Z,13.95
2022-08-23T20:04:23.111Z,15.00
2022-08-23T20:06:51.045Z,14.38
2022-08-23T20:09:21.465Z,15.88
2022-08-23T20:11:52.611Z,16.70
2022-08-23T20:14:23.188Z,15.48
2022-08-23T20:16:51.020Z,18.58
2022-08-23T20:19:18.675Z,19.65
2022-08-23T20:21:46.136Z,17.33
2022-08-23T20:24:15.091Z,16.65
2022-08-23T20:26:46.802Z,15.23
2022-08-23T20:31:56.061Z,16.02
2022-08-23T20:34:26.509Z,15.18
2022-08-23T20:36:56.197Z,16.90
2022-08-23T20:39:25.688Z,15.25
2022-08-23T20:41:53.980Z,14.82
2022-08-23T20:44:25.826Z,15.27
2022-08-23T20:46:56.025Z,14.82
2022-08-23T20:49:25.949Z,15.90
2022-08-23T20:51:52.998Z,15.75
2022-08-23T20:54:20.288Z,16.08
2022-08-23T20:56:51.448Z,17.90
2022-08-23T20:59:19.811Z,15.70
2022-08-23T21:01:48.092Z,17.38
2022-08-23T21:04:15.857Z,15.68
2022-08-23T21:06:50.559Z,17.38
2022-08-23T21:09:23.423Z,17.33
2022-08-23T21:11:53.296Z,18.30
2022-08-23T21:14:20.883Z,17.80
2022-08-23T21:16:48.126Z,17.60
2022-08-23T21:19:17.080Z,18.00
2022-08-23T21:21:44.750Z,17.15
2022-08-23T21:24:13.429Z,16.25
2022-08-23T21:26:41.724Z,18.10
2022-08-23T21:29:10.620Z,18.08
2022-08-23T21:31:39.189Z,20.02
2022-08-23T21:34:08.166Z,18.52
2022-08-23T21:36:36.299Z,17.55
2022-08-23T21:39:05.141Z,16.10
2022-08-23T21:41:40.584Z,15.80
2022-08-23T21:44:12.333Z,18.63
2022-08-23T21:46:40.946Z,15.73
2022-08-23T21:49:09.206Z,19.83
2022-08-23T21:51:40.720Z,17.37
2022-08-23T21:54:10.882Z,14.65
2022-08-23T21:56:39.134Z,17.10
2022-08-23T21:59:10.443Z,14.77
2022-08-23T22:01:37.803Z,14.93
2022-08-23T22:04:09.830Z,14.48
2022-08-23T22:06:38.215Z,16.15
2022-08-23T22:09:09.885Z,14.30
2022-08-23T22:11:40.583Z,15.43
2022-08-23T22:14:15.409Z,12.98
2022-08-23T22:16:54.989Z,14.10
2022-08-23T22:19:22.972Z,14.98
2022-08-23T22:21:52.376Z,13.40
2022-08-23T22:24:25.475Z,14.45
2022-08-23T22:26:55.267Z,12.70
2022-08-23T22:29:23.636Z,12.95
2022-08-23T22:31:51.318Z,13.32
2022-08-23T22:34:18.658Z,13.85
2022-08-23T22:36:46.251Z,14.25
2022-08-23T22:39:20.244Z,16.42
2022-08-23T22:41:47.261Z,15.55
2022-08-23T22:44:14.308Z,15.88
2022-08-23T22:46:42.216Z,16.30
2022-08-23T22:49:09.478Z,16.25
2022-08-23T22:51:38.466Z,14.55
2022-08-23T22:54:09.716Z,15.48
2022-08-23T22:56:43.289Z,14.55
2022-08-23T22:59:12.359Z,16.10
2022-08-23T23:01:47.986Z,18.60
2022-08-23T23:04:18.837Z,15.40
2022-08-23T23:06:48.861Z,16.52
2022-08-23T23:09:16.971Z,15.40
2022-08-23T23:11:45.739Z,14.32
2022-08-23T23:14:16.419Z,14.85
2022-08-23T23:16:44.909Z,13.35
2022-08-23T23:19:31.365Z,14.38
2022-08-23T23:21:59.736Z,13.90
2022-08-23T23:24:31.915Z,15.45
2022-08-23T23:27:00.677Z,14.05
2022-08-23T23:29:30.002Z,14.90
2022-08-23T23:31:57.910Z,13.48
2022-08-23T23:34:26.649Z,14.20
2022-08-23T23:36:57.366Z,13.65
2022-08-23T23:39:25.339Z,13.35
2022-08-23T23:41:53.176Z,14.93
2022-08-23T23:44:24.317Z,13.48
2022-08-23T23:47:01.815Z,13.60
2022-08-23T23:49:33.219Z,14.80
2022-08-23T23:52:04.664Z,13.95
2022-08-23T23:54:33.655Z,13.93
2022-08-23T23:57:02.397Z,12.65
2022-08-23T23:59:29.800Z,14.45
